sensor_id;sensor_type;location;lat;lon;timestamp;P1;durP1;ratioP1;P2;durP2;ratioP2
4909;SDS011;2470;49.868;8.660;2022-11-20T00:01:40;20.73;;;9.40;;
4909;SDS011;2470;49.868;8.660;2022-11-20T00:04:06;16.77;;;9.03;;
4909;SDS011;2470;49.868;8.660;2022-11-20T00:06:33;19.57;;;9.33;;
4909;SDS011;2470;49.868;8.660;2022-11-20T00:08:59;20.43;;;10.17;;
4909;SDS011;2470;49.868;8.660;2022-11-20T00:11:26;20.37;;;8.97;;
4909;SDS011;2470;49.868;8.660;2022-11-20T00:13:54;19.67;;;8.50;;
4909;SDS011;2470;49.868;8.660;2022-11-20T00:16:22;18.37;;;8.67;;
4909;SDS011;2470;49.868;8.660;2022-11-20T00:18:50;17.90;;;8.10;;
4909;SDS011;2470;49.868;8.660;2022-11-20T00:21:17;21.00;;;10.13;;
4909;SDS011;2470;49.868;8.660;2022-11-20T00:23:46;19.70;;;9.90;;
4909;SDS011;2470;49.868;8.660;2022-11-20T00:26:13;18.27;;;9.27;;
4909;SDS011;2470;49.868;8.660;2022-11-20T00:28:41;24.10;;;11.00;;
4909;SDS011;2470;49.868;8.660;2022-11-20T00:31:09;14.90;;;8.47;;
4909;SDS011;2470;49.868;8.660;2022-11-20T00:33:39;20.30;;;9.07;;
4909;SDS011;2470;49.868;8.660;2022-11-20T00:36:06;20.90;;;9.57;;
4909;SDS011;2470;49.868;8.660;2022-11-20T00:38:34;17.07;;;8.53;;
4909;SDS011;2470;49.868;8.660;2022-11-20T00:41:01;22.40;;;9.70;;
4909;SDS011;2470;49.868;8.660;2022-11-20T00:43:29;19.60;;;9.60;;
4909;SDS011;2470;49.868;8.660;2022-11-20T00:45:58;20.57;;;10.50;;
4909;SDS011;2470;49.868;8.660;2022-11-20T00:48:25;17.43;;;9.30;;
4909;SDS011;2470;49.868;8.660;2022-11-20T00:50:51;19.07;;;9.50;;
4909;SDS011;2470;49.868;8.660;2022-11-20T00:53:17;21.77;;;8.83;;
4909;SDS011;2470;49.868;8.660;2022-11-20T00:55:43;18.60;;;9.80;;
4909;SDS011;2470;49.868;8.660;2022-11-20T00:58:16;18.13;;;9.80;;
4909;SDS011;2470;49.868;8.660;2022-11-20T01:00:42;18.23;;;9.70;;
4909;SDS011;2470;49.868;8.660;2022-11-20T01:03:07;18.47;;;9.10;;
4909;SDS011;2470;49.868;8.660;2022-11-20T01:05:34;16.67;;;8.23;;
4909;SDS011;2470;49.868;8.660;2022-11-20T01:08:00;19.07;;;9.87;;
4909;SDS011;2470;49.868;8.660;2022-11-20T01:10:25;17.63;;;8.00;;
4909;SDS011;2470;49.868;8.660;2022-11-20T01:12:51;15.40;;;8.77;;
4909;SDS011;2470;49.868;8.660;2022-11-20T01:15:36;17.03;;;9.53;;
4909;SDS011;2470;49.868;8.660;2022-11-20T01:18:02;15.17;;;7.67;;
4909;SDS011;2470;49.868;8.660;2022-11-20T01:20:27;18.00;;;10.33;;
4909;SDS011;2470;49.868;8.660;2022-11-20T01:22:53;19.63;;;8.47;;
4909;SDS011;2470;49.868;8.660;2022-11-20T01:25:18;17.13;;;9.10;;
4909;SDS011;2470;49.868;8.660;2022-11-20T01:27:44;19.63;;;9.37;;
4909;SDS011;2470;49.868;8.660;2022-11-20T01:30:10;17.57;;;9.63;;
4909;SDS011;2470;49.868;8.660;2022-11-20T01:32:35;18.40;;;9.00;;
4909;SDS011;2470;49.868;8.660;2022-11-20T01:35:01;14.70;;;8.30;;
4909;SDS011;2470;49.868;8.660;2022-11-20T01:37:27;15.87;;;7.20;;
4909;SDS011;2470;49.868;8.660;2022-11-20T01:39:52;16.37;;;8.67;;
4909;SDS011;2470;49.868;8.660;2022-11-20T01:42:17;15.03;;;9.30;;
4909;SDS011;2470;49.868;8.660;2022-11-20T01:45:01;16.00;;;8.53;;
4909;SDS011;2470;49.868;8.660;2022-11-20T01:47:47;12.20;;;7.33;;
4909;SDS011;2470;49.868;8.660;2022-11-20T01:50:16;16.73;;;9.03;;
4909;SDS011;2470;49.868;8.660;2022-11-20T01:52:52;16.83;;;9.77;;
4909;SDS011;2470;49.868;8.660;2022-11-20T01:55:23;14.20;;;7.13;;
4909;SDS011;2470;49.868;8.660;2022-11-20T01:57:51;15.80;;;8.37;;
4909;SDS011;2470;49.868;8.660;2022-11-20T02:00:18;19.07;;;8.70;;
4909;SDS011;2470;49.868;8.660;2022-11-20T02:02:46;14.57;;;7.90;;
4909;SDS011;2470;49.868;8.660;2022-11-20T02:05:24;19.47;;;8.80;;
4909;SDS011;2470;49.868;8.660;2022-11-20T02:07:56;13.77;;;7.27;;
4909;SDS011;2470;49.868;8.660;2022-11-20T02:10:23;15.80;;;8.07;;
4909;SDS011;2470;49.868;8.660;2022-11-20T02:12:50;14.00;;;7.47;;
4909;SDS011;2470;49.868;8.660;2022-11-20T02:15:34;14.13;;;6.93;;
4909;SDS011;2470;49.868;8.660;2022-11-20T02:18:00;14.87;;;6.03;;
4909;SDS011;2470;49.868;8.660;2022-11-20T02:20:26;7.80;;;4.50;;
4909;SDS011;2470;49.868;8.660;2022-11-20T02:22:56;12.03;;;5.70;;
4909;SDS011;2470;49.868;8.660;2022-11-20T02:25:27;15.13;;;7.47;;
4909;SDS011;2470;49.868;8.660;2022-11-20T02:27:53;11.50;;;6.20;;
4909;SDS011;2470;49.868;8.660;2022-11-20T02:30:19;14.03;;;6.97;;
4909;SDS011;2470;49.868;8.660;2022-11-20T02:32:45;12.07;;;7.10;;
4909;SDS011;2470;49.868;8.660;2022-11-20T02:37:45;11.43;;;5.17;;
4909;SDS011;2470;49.868;8.660;2022-11-20T02:40:14;9.10;;;5.63;;
4909;SDS011;2470;49.868;8.660;2022-11-20T02:42:40;9.70;;;5.23;;
4909;SDS011;2470;49.868;8.660;2022-11-20T02:45:05;11.33;;;5.73;;
4909;SDS011;2470;49.868;8.660;2022-11-20T02:47:31;9.50;;;6.20;;
4909;SDS011;2470;49.868;8.660;2022-11-20T02:49:57;13.00;;;6.03;;
4909;SDS011;2470;49.868;8.660;2022-11-20T02:52:23;13.33;;;6.20;;
4909;SDS011;2470;49.868;8.660;2022-11-20T02:54:50;8.87;;;5.40;;
4909;SDS011;2470;49.868;8.660;2022-11-20T02:57:15;8.53;;;4.97;;
4909;SDS011;2470;49.868;8.660;2022-11-20T02:59:41;10.10;;;6.00;;
4909;SDS011;2470;49.868;8.660;2022-11-20T03:02:06;11.40;;;5.93;;
4909;SDS011;2470;49.868;8.660;2022-11-20T03:04:32;15.77;;;6.17;;
4909;SDS011;2470;49.868;8.660;2022-11-20T03:06:57;15.57;;;7.10;;
4909;SDS011;2470;49.868;8.660;2022-11-20T03:09:23;17.70;;;6.87;;
4909;SDS011;2470;49.868;8.660;2022-11-20T03:11:48;12.10;;;7.13;;
4909;SDS011;2470;49.868;8.660;2022-11-20T03:14:14;16.43;;;7.20;;
4909;SDS011;2470;49.868;8.660;2022-11-20T03:16:39;15.57;;;7.90;;
4909;SDS011;2470;49.868;8.660;2022-11-20T03:19:05;18.17;;;8.03;;
4909;SDS011;2470;49.868;8.660;2022-11-20T03:21:32;14.57;;;8.50;;
4909;SDS011;2470;49.868;8.660;2022-11-20T03:23:58;13.67;;;7.43;;
4909;SDS011;2470;49.868;8.660;2022-11-20T03:26:25;19.07;;;9.20;;
4909;SDS011;2470;49.868;8.660;2022-11-20T03:28:52;26.83;;;9.13;;
4909;SDS011;2470;49.868;8.660;2022-11-20T03:31:25;21.50;;;8.63;;
4909;SDS011;2470;49.868;8.660;2022-11-20T03:33:55;17.03;;;9.30;;
4909;SDS011;2470;49.868;8.660;2022-11-20T03:36:22;17.57;;;8.17;;
4909;SDS011;2470;49.868;8.660;2022-11-20T03:38:48;17.40;;;8.23;;
4909;SDS011;2470;49.868;8.660;2022-11-20T03:41:18;16.33;;;8.37;;
4909;SDS011;2470;49.868;8.660;2022-11-20T03:43:54;19.63;;;9.63;;
4909;SDS011;2470;49.868;8.660;2022-11-20T03:46:24;21.47;;;8.60;;
4909;SDS011;2470;49.868;8.660;2022-11-20T03:48:51;18.57;;;9.50;;
4909;SDS011;2470;49.868;8.660;2022-11-20T03:51:21;21.17;;;9.27;;
4909;SDS011;2470;49.868;8.660;2022-11-20T03:53:51;19.00;;;9.30;;
4909;SDS011;2470;49.868;8.660;2022-11-20T03:56:18;20.00;;;9.70;;
4909;SDS011;2470;49.868;8.660;2022-11-20T03:58:46;19.23;;;9.50;;
4909;SDS011;2470;49.868;8.660;2022-11-20T04:01:22;12.97;;;7.03;;
4909;SDS011;2470;49.868;8.660;2022-11-20T04:03:53;17.27;;;8.70;;
4909;SDS011;2470;49.868;8.660;2022-11-20T04:06:20;21.50;;;8.83;;
4909;SDS011;2470;49.868;8.660;2022-11-20T04:08:51;22.90;;;8.10;;
4909;SDS011;2470;49.868;8.660;2022-11-20T04:11:22;23.07;;;9.30;;
4909;SDS011;2470;49.868;8.660;2022-11-20T04:13:56;16.93;;;7.43;;
4909;SDS011;2470;49.868;8.660;2022-11-20T04:16:24;25.00;;;9.63;;
4909;SDS011;2470;49.868;8.660;2022-11-20T04:18:54;21.37;;;7.67;;
4909;SDS011;2470;49.868;8.660;2022-11-20T04:21:22;15.07;;;7.83;;
4909;SDS011;2470;49.868;8.660;2022-11-20T04:23:49;25.37;;;10.17;;
4909;SDS011;2470;49.868;8.660;2022-11-20T04:26:17;20.80;;;9.13;;
4909;SDS011;2470;49.868;8.660;2022-11-20T04:28:43;18.50;;;10.00;;
4909;SDS011;2470;49.868;8.660;2022-11-20T04:31:09;18.60;;;10.20;;
4909;SDS011;2470;49.868;8.660;2022-11-20T04:33:37;18.30;;;9.77;;
4909;SDS011;2470;49.868;8.660;2022-11-20T04:36:03;16.77;;;9.43;;
4909;SDS011;2470;49.868;8.660;2022-11-20T04:38:31;20.00;;;9.77;;
4909;SDS011;2470;49.868;8.660;2022-11-20T04:41:01;17.10;;;8.57;;
4909;SDS011;2470;49.868;8.660;2022-11-20T04:43:27;15.87;;;8.60;;
4909;SDS011;2470;49.868;8.660;2022-11-20T04:45:53;17.17;;;8.17;;
4909;SDS011;2470;49.868;8.660;2022-11-20T04:48:21;31.23;;;11.87;;
4909;SDS011;2470;49.868;8.660;2022-11-20T04:50:47;25.50;;;10.53;;
4909;SDS011;2470;49.868;8.660;2022-11-20T04:53:12;18.73;;;9.63;;
4909;SDS011;2470;49.868;8.660;2022-11-20T04:55:38;18.43;;;9.17;;
4909;SDS011;2470;49.868;8.660;2022-11-20T04:58:04;15.47;;;8.77;;
4909;SDS011;2470;49.868;8.660;2022-11-20T05:00:29;22.33;;;9.73;;
4909;SDS011;2470;49.868;8.660;2022-11-20T05:02:55;18.90;;;10.40;;
4909;SDS011;2470;49.868;8.660;2022-11-20T05:05:20;20.90;;;10.10;;
4909;SDS011;2470;49.868;8.660;2022-11-20T05:07:46;33.93;;;12.03;;
4909;SDS011;2470;49.868;8.660;2022-11-20T05:10:11;25.30;;;12.03;;
4909;SDS011;2470;49.868;8.660;2022-11-20T05:12:37;20.23;;;9.57;;
4909;SDS011;2470;49.868;8.660;2022-11-20T05:15:02;21.23;;;10.00;;
4909;SDS011;2470;49.868;8.660;2022-11-20T05:17:28;20.40;;;10.43;;
4909;SDS011;2470;49.868;8.660;2022-11-20T05:19:54;26.37;;;9.50;;
4909;SDS011;2470;49.868;8.660;2022-11-20T05:22:19;20.50;;;9.50;;
4909;SDS011;2470;49.868;8.660;2022-11-20T05:24:45;22.07;;;9.17;;
4909;SDS011;2470;49.868;8.660;2022-11-20T05:27:10;25.10;;;9.93;;
4909;SDS011;2470;49.868;8.660;2022-11-20T05:29:36;21.23;;;9.93;;
4909;SDS011;2470;49.868;8.660;2022-11-20T05:32:01;22.60;;;10.30;;
4909;SDS011;2470;49.868;8.660;2022-11-20T05:34:27;20.80;;;8.43;;
4909;SDS011;2470;49.868;8.660;2022-11-20T05:36:52;28.80;;;11.70;;
4909;SDS011;2470;49.868;8.660;2022-11-20T05:39:18;23.83;;;8.67;;
4909;SDS011;2470;49.868;8.660;2022-11-20T05:41:43;24.10;;;9.97;;
4909;SDS011;2470;49.868;8.660;2022-11-20T05:44:12;24.00;;;11.20;;
4909;SDS011;2470;49.868;8.660;2022-11-20T05:46:37;20.60;;;9.63;;
4909;SDS011;2470;49.868;8.660;2022-11-20T05:49:03;19.57;;;9.10;;
4909;SDS011;2470;49.868;8.660;2022-11-20T05:51:28;21.23;;;8.90;;
4909;SDS011;2470;49.868;8.660;2022-11-20T05:53:55;33.40;;;10.00;;
4909;SDS011;2470;49.868;8.660;2022-11-20T05:56:22;21.00;;;8.77;;
4909;SDS011;2470;49.868;8.660;2022-11-20T05:58:48;24.30;;;8.43;;
4909;SDS011;2470;49.868;8.660;2022-11-20T06:01:16;16.30;;;7.77;;
4909;SDS011;2470;49.868;8.660;2022-11-20T06:03:46;21.50;;;10.27;;
4909;SDS011;2470;49.868;8.660;2022-11-20T06:06:16;27.00;;;11.60;;
4909;SDS011;2470;49.868;8.660;2022-11-20T06:08:43;28.47;;;11.03;;
4909;SDS011;2470;49.868;8.660;2022-11-20T06:11:09;25.57;;;11.57;;
4909;SDS011;2470;49.868;8.660;2022-11-20T06:13:36;20.80;;;9.30;;
4909;SDS011;2470;49.868;8.660;2022-11-20T06:16:02;19.20;;;9.70;;
4909;SDS011;2470;49.868;8.660;2022-11-20T06:18:28;23.60;;;8.90;;
4909;SDS011;2470;49.868;8.660;2022-11-20T06:21:01;25.30;;;10.63;;
4909;SDS011;2470;49.868;8.660;2022-11-20T06:23:29;17.77;;;7.70;;
4909;SDS011;2470;49.868;8.660;2022-11-20T06:25:55;13.70;;;8.03;;
4909;SDS011;2470;49.868;8.660;2022-11-20T06:28:20;15.20;;;6.80;;
4909;SDS011;2470;49.868;8.660;2022-11-20T06:30:46;20.20;;;8.73;;
4909;SDS011;2470;49.868;8.660;2022-11-20T06:33:12;15.97;;;7.20;;
4909;SDS011;2470;49.868;8.660;2022-11-20T06:35:38;20.47;;;9.03;;
4909;SDS011;2470;49.868;8.660;2022-11-20T06:38:03;16.00;;;8.60;;
4909;SDS011;2470;49.868;8.660;2022-11-20T06:40:29;17.60;;;8.20;;
4909;SDS011;2470;49.868;8.660;2022-11-20T06:42:54;17.80;;;8.10;;
4909;SDS011;2470;49.868;8.660;2022-11-20T06:45:20;14.23;;;7.80;;
4909;SDS011;2470;49.868;8.660;2022-11-20T06:47:46;15.87;;;8.17;;
4909;SDS011;2470;49.868;8.660;2022-11-20T06:50:12;15.53;;;7.00;;
4909;SDS011;2470;49.868;8.660;2022-11-20T06:52:38;21.93;;;9.30;;
4909;SDS011;2470;49.868;8.660;2022-11-20T06:55:03;14.20;;;7.80;;
4909;SDS011;2470;49.868;8.660;2022-11-20T06:57:29;14.33;;;7.50;;
4909;SDS011;2470;49.868;8.660;2022-11-20T06:59:55;17.47;;;9.57;;
4909;SDS011;2470;49.868;8.660;2022-11-20T07:02:20;17.03;;;7.23;;
4909;SDS011;2470;49.868;8.660;2022-11-20T07:04:46;26.23;;;9.07;;
4909;SDS011;2470;49.868;8.660;2022-11-20T07:07:11;18.30;;;9.10;;
4909;SDS011;2470;49.868;8.660;2022-11-20T07:09:37;19.50;;;9.27;;
4909;SDS011;2470;49.868;8.660;2022-11-20T07:12:02;15.30;;;8.30;;
4909;SDS011;2470;49.868;8.660;2022-11-20T07:14:28;19.07;;;8.10;;
4909;SDS011;2470;49.868;8.660;2022-11-20T07:16:53;20.50;;;8.77;;
4909;SDS011;2470;49.868;8.660;2022-11-20T07:19:19;14.10;;;6.97;;
4909;SDS011;2470;49.868;8.660;2022-11-20T07:21:44;19.37;;;9.37;;
4909;SDS011;2470;49.868;8.660;2022-11-20T07:24:10;15.00;;;8.77;;
4909;SDS011;2470;49.868;8.660;2022-11-20T07:26:36;14.03;;;7.40;;
4909;SDS011;2470;49.868;8.660;2022-11-20T07:29:01;15.50;;;7.87;;
4909;SDS011;2470;49.868;8.660;2022-11-20T07:31:27;17.47;;;9.90;;
4909;SDS011;2470;49.868;8.660;2022-11-20T07:33:52;13.40;;;7.63;;
4909;SDS011;2470;49.868;8.660;2022-11-20T07:36:18;16.57;;;7.77;;
4909;SDS011;2470;49.868;8.660;2022-11-20T07:38:43;16.33;;;7.93;;
4909;SDS011;2470;49.868;8.660;2022-11-20T07:41:09;22.23;;;8.97;;
4909;SDS011;2470;49.868;8.660;2022-11-20T07:43:34;24.80;;;11.00;;
4909;SDS011;2470;49.868;8.660;2022-11-20T07:45:59;26.00;;;10.00;;
4909;SDS011;2470;49.868;8.660;2022-11-20T07:48:25;26.37;;;11.50;;
4909;SDS011;2470;49.868;8.660;2022-11-20T07:50:54;29.70;;;12.30;;
4909;SDS011;2470;49.868;8.660;2022-11-20T07:53:23;27.37;;;9.30;;
4909;SDS011;2470;49.868;8.660;2022-11-20T07:55:49;20.80;;;10.17;;
4909;SDS011;2470;49.868;8.660;2022-11-20T07:58:17;28.30;;;9.20;;
4909;SDS011;2470;49.868;8.660;2022-11-20T08:00:43;24.10;;;11.40;;
4909;SDS011;2470;49.868;8.660;2022-11-20T08:03:09;22.83;;;8.17;;
4909;SDS011;2470;49.868;8.660;2022-11-20T08:05:34;24.73;;;10.33;;
4909;SDS011;2470;49.868;8.660;2022-11-20T08:08:00;22.40;;;10.00;;
4909;SDS011;2470;49.868;8.660;2022-11-20T08:10:25;17.57;;;8.47;;
4909;SDS011;2470;49.868;8.660;2022-11-20T08:12:52;17.53;;;8.13;;
4909;SDS011;2470;49.868;8.660;2022-11-20T08:15:37;20.27;;;8.37;;
4909;SDS011;2470;49.868;8.660;2022-11-20T08:18:05;20.50;;;9.37;;
4909;SDS011;2470;49.868;8.660;2022-11-20T08:20:32;16.10;;;7.87;;
4909;SDS011;2470;49.868;8.660;2022-11-20T08:23:02;18.53;;;8.20;;
4909;SDS011;2470;49.868;8.660;2022-11-20T08:25:30;19.00;;;8.47;;
4909;SDS011;2470;49.868;8.660;2022-11-20T08:27:57;23.87;;;10.80;;
4909;SDS011;2470;49.868;8.660;2022-11-20T08:30:23;23.17;;;10.43;;
4909;SDS011;2470;49.868;8.660;2022-11-20T08:32:49;18.03;;;8.97;;
4909;SDS011;2470;49.868;8.660;2022-11-20T08:35:15;19.70;;;8.47;;
4909;SDS011;2470;49.868;8.660;2022-11-20T08:37:40;26.70;;;8.93;;
4909;SDS011;2470;49.868;8.660;2022-11-20T08:40:08;18.77;;;8.83;;
4909;SDS011;2470;49.868;8.660;2022-11-20T08:42:34;21.93;;;10.20;;
4909;SDS011;2470;49.868;8.660;2022-11-20T08:45:00;19.10;;;9.17;;
4909;SDS011;2470;49.868;8.660;2022-11-20T08:47:25;15.13;;;7.53;;
4909;SDS011;2470;49.868;8.660;2022-11-20T08:49:51;21.00;;;8.63;;
4909;SDS011;2470;49.868;8.660;2022-11-20T08:52:17;19.10;;;8.37;;
4909;SDS011;2470;49.868;8.660;2022-11-20T08:54:42;21.30;;;9.47;;
4909;SDS011;2470;49.868;8.660;2022-11-20T08:57:08;31.50;;;11.03;;
4909;SDS011;2470;49.868;8.660;2022-11-20T08:59:33;21.57;;;8.33;;
4909;SDS011;2470;49.868;8.660;2022-11-20T09:01:59;17.83;;;8.57;;
4909;SDS011;2470;49.868;8.660;2022-11-20T09:04:24;19.33;;;9.27;;
4909;SDS011;2470;49.868;8.660;2022-11-20T09:06:50;19.73;;;8.17;;
4909;SDS011;2470;49.868;8.660;2022-11-20T09:09:16;12.63;;;6.97;;
4909;SDS011;2470;49.868;8.660;2022-11-20T09:11:43;17.70;;;8.50;;
4909;SDS011;2470;49.868;8.660;2022-11-20T09:14:09;14.07;;;8.57;;
4909;SDS011;2470;49.868;8.660;2022-11-20T09:16:34;16.73;;;7.13;;
4909;SDS011;2470;49.868;8.660;2022-11-20T09:19:00;13.53;;;7.63;;
4909;SDS011;2470;49.868;8.660;2022-11-20T09:21:25;11.93;;;6.87;;
4909;SDS011;2470;49.868;8.660;2022-11-20T09:23:51;14.37;;;7.57;;
4909;SDS011;2470;49.868;8.660;2022-11-20T09:26:17;13.57;;;6.40;;
4909;SDS011;2470;49.868;8.660;2022-11-20T09:28:42;14.70;;;7.70;;
4909;SDS011;2470;49.868;8.660;2022-11-20T09:31:09;13.07;;;6.20;;
4909;SDS011;2470;49.868;8.660;2022-11-20T09:33:42;12.40;;;5.77;;
4909;SDS011;2470;49.868;8.660;2022-11-20T09:36:08;10.93;;;6.03;;
4909;SDS011;2470;49.868;8.660;2022-11-20T09:38:33;11.50;;;5.67;;
4909;SDS011;2470;49.868;8.660;2022-11-20T09:41:05;16.70;;;8.67;;
4909;SDS011;2470;49.868;8.660;2022-11-20T09:46:35;13.20;;;7.07;;
4909;SDS011;2470;49.868;8.660;2022-11-20T09:51:59;20.23;;;8.90;;
4909;SDS011;2470;49.868;8.660;2022-11-20T09:54:45;21.20;;;11.13;;
4909;SDS011;2470;49.868;8.660;2022-11-20T09:57:11;26.10;;;8.17;;
4909;SDS011;2470;49.868;8.660;2022-11-20T09:59:40;19.77;;;9.43;;
4909;SDS011;2470;49.868;8.660;2022-11-20T10:05:06;17.63;;;7.50;;
4909;SDS011;2470;49.868;8.660;2022-11-20T10:10:46;12.00;;;5.60;;
4909;SDS011;2470;49.868;8.660;2022-11-20T10:31:49;13.93;;;7.00;;
4909;SDS011;2470;49.868;8.660;2022-11-20T10:34:26;15.87;;;7.50;;
4909;SDS011;2470;49.868;8.660;2022-11-20T10:37:00;18.13;;;7.20;;
4909;SDS011;2470;49.868;8.660;2022-11-20T10:39:32;27.57;;;7.63;;
4909;SDS011;2470;49.868;8.660;2022-11-20T10:42:03;16.17;;;7.40;;
4909;SDS011;2470;49.868;8.660;2022-11-20T10:44:35;15.47;;;8.50;;
4909;SDS011;2470;49.868;8.660;2022-11-20T10:47:22;11.40;;;7.40;;
4909;SDS011;2470;49.868;8.660;2022-11-20T10:49:49;16.00;;;6.90;;
4909;SDS011;2470;49.868;8.660;2022-11-20T10:52:25;20.43;;;6.97;;
4909;SDS011;2470;49.868;8.660;2022-11-20T10:55:39;15.17;;;8.43;;
4909;SDS011;2470;49.868;8.660;2022-11-20T11:01:02;17.07;;;8.63;;
4909;SDS011;2470;49.868;8.660;2022-11-20T11:03:42;14.17;;;7.00;;
4909;SDS011;2470;49.868;8.660;2022-11-20T11:06:11;15.77;;;8.20;;
4909;SDS011;2470;49.868;8.660;2022-11-20T11:08:58;14.87;;;8.37;;
4909;SDS011;2470;49.868;8.660;2022-11-20T11:11:29;16.23;;;7.90;;
4909;SDS011;2470;49.868;8.660;2022-11-20T11:14:06;13.43;;;8.10;;
4909;SDS011;2470;49.868;8.660;2022-11-20T11:16:33;24.40;;;8.20;;
4909;SDS011;2470;49.868;8.660;2022-11-20T11:19:12;17.23;;;8.53;;
4909;SDS011;2470;49.868;8.660;2022-11-20T11:21:38;16.73;;;8.13;;
4909;SDS011;2470;49.868;8.660;2022-11-20T11:24:20;16.50;;;7.47;;
4909;SDS011;2470;49.868;8.660;2022-11-20T11:26:52;22.10;;;8.77;;
4909;SDS011;2470;49.868;8.660;2022-11-20T11:29:22;17.00;;;8.80;;
4909;SDS011;2470;49.868;8.660;2022-11-20T11:31:51;19.97;;;8.93;;
4909;SDS011;2470;49.868;8.660;2022-11-20T11:34:32;15.60;;;7.43;;
4909;SDS011;2470;49.868;8.660;2022-11-20T11:36:58;18.03;;;10.70;;
4909;SDS011;2470;49.868;8.660;2022-11-20T11:39:26;17.90;;;8.93;;
4909;SDS011;2470;49.868;8.660;2022-11-20T11:41:54;16.83;;;8.10;;
4909;SDS011;2470;49.868;8.660;2022-11-20T11:44:20;15.00;;;8.53;;
4909;SDS011;2470;49.868;8.660;2022-11-20T11:47:22;18.10;;;8.90;;
4909;SDS011;2470;49.868;8.660;2022-11-20T11:50:12;16.53;;;9.40;;
4909;SDS011;2470;49.868;8.660;2022-11-20T11:53:09;14.20;;;8.80;;
4909;SDS011;2470;49.868;8.660;2022-11-20T11:55:53;15.13;;;8.40;;
4909;SDS011;2470;49.868;8.660;2022-11-20T12:01:26;14.47;;;7.53;;
4909;SDS011;2470;49.868;8.660;2022-11-20T12:04:14;15.27;;;6.57;;
4909;SDS011;2470;49.868;8.660;2022-11-20T12:07:07;16.07;;;8.40;;
4909;SDS011;2470;49.868;8.660;2022-11-20T12:09:39;13.77;;;8.83;;
4909;SDS011;2470;49.868;8.660;2022-11-20T12:12:21;20.37;;;9.00;;
4909;SDS011;2470;49.868;8.660;2022-11-20T12:15:16;13.30;;;7.10;;
4909;SDS011;2470;49.868;8.660;2022-11-20T12:17:59;16.40;;;7.70;;
4909;SDS011;2470;49.868;8.660;2022-11-20T12:20:27;14.40;;;7.73;;
4909;SDS011;2470;49.868;8.660;2022-11-20T12:23:14;14.73;;;8.43;;
4909;SDS011;2470;49.868;8.660;2022-11-20T12:25:52;12.17;;;6.97;;
4909;SDS011;2470;49.868;8.660;2022-11-20T12:30:58;16.27;;;7.73;;
4909;SDS011;2470;49.868;8.660;2022-11-20T12:33:58;17.67;;;7.67;;
4909;SDS011;2470;49.868;8.660;2022-11-20T12:39:20;14.13;;;7.43;;
4909;SDS011;2470;49.868;8.660;2022-11-20T12:45:12;15.60;;;8.33;;
4909;SDS011;2470;49.868;8.660;2022-11-20T12:51:17;12.07;;;6.73;;
4909;SDS011;2470;49.868;8.660;2022-11-20T12:57:03;13.67;;;6.93;;
4909;SDS011;2470;49.868;8.660;2022-11-20T12:59:53;14.17;;;7.43;;
4909;SDS011;2470;49.868;8.660;2022-11-20T13:05:09;16.77;;;7.00;;
4909;SDS011;2470;49.868;8.660;2022-11-20T13:07:36;13.37;;;7.20;;
4909;SDS011;2470;49.868;8.660;2022-11-20T13:10:02;15.00;;;7.60;;
4909;SDS011;2470;49.868;8.660;2022-11-20T13:15:11;14.83;;;8.40;;
4909;SDS011;2470;49.868;8.660;2022-11-20T13:18:00;15.57;;;7.60;;
4909;SDS011;2470;49.868;8.660;2022-11-20T13:20:29;16.27;;;7.50;;
4909;SDS011;2470;49.868;8.660;2022-11-20T13:22:56;13.20;;;8.60;;
4909;SDS011;2470;49.868;8.660;2022-11-20T13:27:52;20.07;;;8.63;;
4909;SDS011;2470;49.868;8.660;2022-11-20T13:30:20;19.17;;;8.70;;
4909;SDS011;2470;49.868;8.660;2022-11-20T13:33:02;20.30;;;7.57;;
4909;SDS011;2470;49.868;8.660;2022-11-20T13:38:27;14.90;;;8.27;;
4909;SDS011;2470;49.868;8.660;2022-11-20T13:40:55;21.50;;;8.97;;
4909;SDS011;2470;49.868;8.660;2022-11-20T13:43:26;10.93;;;7.00;;
4909;SDS011;2470;49.868;8.660;2022-11-20T13:46:01;16.80;;;9.27;;
4909;SDS011;2470;49.868;8.660;2022-11-20T13:48:30;14.73;;;7.10;;
4909;SDS011;2470;49.868;8.660;2022-11-20T13:51:05;18.07;;;8.37;;
4909;SDS011;2470;49.868;8.660;2022-11-20T13:56:43;15.73;;;8.77;;
4909;SDS011;2470;49.868;8.660;2022-11-20T13:59:14;17.13;;;8.37;;
4909;SDS011;2470;49.868;8.660;2022-11-20T14:01:51;22.10;;;8.13;;
4909;SDS011;2470;49.868;8.660;2022-11-20T14:04:18;19.27;;;9.20;;
4909;SDS011;2470;49.868;8.660;2022-11-20T14:06:50;14.83;;;7.70;;
4909;SDS011;2470;49.868;8.660;2022-11-20T14:09:29;12.60;;;7.27;;
4909;SDS011;2470;49.868;8.660;2022-11-20T14:11:56;16.83;;;8.20;;
4909;SDS011;2470;49.868;8.660;2022-11-20T14:14:23;15.37;;;8.27;;
4909;SDS011;2470;49.868;8.660;2022-11-20T14:16:50;12.53;;;7.13;;
4909;SDS011;2470;49.868;8.660;2022-11-20T14:21:46;22.93;;;8.87;;
4909;SDS011;2470;49.868;8.660;2022-11-20T14:24:14;19.70;;;10.60;;
4909;SDS011;2470;49.868;8.660;2022-11-20T14:26:45;16.27;;;8.20;;
4909;SDS011;2470;49.868;8.660;2022-11-20T14:29:14;15.17;;;8.40;;
4909;SDS011;2470;49.868;8.660;2022-11-20T14:31:42;20.63;;;8.13;;
4909;SDS011;2470;49.868;8.660;2022-11-20T14:34:15;12.00;;;6.53;;
4909;SDS011;2470;49.868;8.660;2022-11-20T14:36:44;18.57;;;8.37;;
4909;SDS011;2470;49.868;8.660;2022-11-20T14:39:11;14.80;;;7.10;;
4909;SDS011;2470;49.868;8.660;2022-11-20T14:41:49;15.57;;;7.18;;
4909;SDS011;2470;49.868;8.660;2022-11-20T14:44:23;14.23;;;7.00;;
4909;SDS011;2470;49.868;8.660;2022-11-20T14:46:56;15.37;;;7.13;;
4909;SDS011;2470;49.868;8.660;2022-11-20T14:49:24;14.50;;;8.03;;
4909;SDS011;2470;49.868;8.660;2022-11-20T14:52:00;19.47;;;8.10;;
4909;SDS011;2470;49.868;8.660;2022-11-20T14:54:27;9.90;;;6.40;;
4909;SDS011;2470;49.868;8.660;2022-11-20T14:56:55;18.53;;;7.70;;
4909;SDS011;2470;49.868;8.660;2022-11-20T14:59:25;17.70;;;7.60;;
4909;SDS011;2470;49.868;8.660;2022-11-20T15:02:03;16.17;;;7.90;;
4909;SDS011;2470;49.868;8.660;2022-11-20T15:04:31;15.83;;;6.97;;
4909;SDS011;2470;49.868;8.660;2022-11-20T15:06:57;14.83;;;8.20;;
4909;SDS011;2470;49.868;8.660;2022-11-20T15:09:24;12.63;;;7.13;;
4909;SDS011;2470;49.868;8.660;2022-11-20T15:12:02;13.90;;;6.33;;
4909;SDS011;2470;49.868;8.660;2022-11-20T15:14:29;9.37;;;5.80;;
4909;SDS011;2470;49.868;8.660;2022-11-20T15:16:57;14.33;;;8.07;;
4909;SDS011;2470;49.868;8.660;2022-11-20T15:19:24;19.87;;;7.20;;
4909;SDS011;2470;49.868;8.660;2022-11-20T15:21:51;8.23;;;5.57;;
4909;SDS011;2470;49.868;8.660;2022-11-20T15:24:17;8.70;;;5.30;;
4909;SDS011;2470;49.868;8.660;2022-11-20T15:26:43;7.80;;;5.30;;
4909;SDS011;2470;49.868;8.660;2022-11-20T15:29:13;22.57;;;5.83;;
4909;SDS011;2470;49.868;8.660;2022-11-20T15:31:43;8.83;;;5.57;;
4909;SDS011;2470;49.868;8.660;2022-11-20T15:34:13;13.60;;;5.50;;
4909;SDS011;2470;49.868;8.660;2022-11-20T15:36:40;8.83;;;5.37;;
4909;SDS011;2470;49.868;8.660;2022-11-20T15:39:06;7.17;;;5.37;;
4909;SDS011;2470;49.868;8.660;2022-11-20T15:41:32;9.80;;;4.97;;
4909;SDS011;2470;49.868;8.660;2022-11-20T15:43:59;11.20;;;5.60;;
4909;SDS011;2470;49.868;8.660;2022-11-20T15:46:28;12.50;;;6.63;;
4909;SDS011;2470;49.868;8.660;2022-11-20T15:48:58;11.60;;;5.43;;
4909;SDS011;2470;49.868;8.660;2022-11-20T15:51:35;8.47;;;5.63;;
4909;SDS011;2470;49.868;8.660;2022-11-20T15:54:09;9.40;;;5.00;;
4909;SDS011;2470;49.868;8.660;2022-11-20T15:56:36;10.53;;;4.97;;
4909;SDS011;2470;49.868;8.660;2022-11-20T15:59:02;9.50;;;4.50;;
4909;SDS011;2470;49.868;8.660;2022-11-20T16:01:28;11.67;;;6.10;;
4909;SDS011;2470;49.868;8.660;2022-11-20T16:03:53;9.27;;;5.73;;
4909;SDS011;2470;49.868;8.660;2022-11-20T16:06:19;13.57;;;4.80;;
4909;SDS011;2470;49.868;8.660;2022-11-20T16:08:45;8.27;;;4.87;;
4909;SDS011;2470;49.868;8.660;2022-11-20T16:11:14;7.93;;;5.13;;
4909;SDS011;2470;49.868;8.660;2022-11-20T16:13:41;9.43;;;5.20;;
4909;SDS011;2470;49.868;8.660;2022-11-20T16:16:27;8.80;;;3.83;;
4909;SDS011;2470;49.868;8.660;2022-11-20T16:18:55;6.13;;;3.83;;
4909;SDS011;2470;49.868;8.660;2022-11-20T16:21:21;5.43;;;3.97;;
4909;SDS011;2470;49.868;8.660;2022-11-20T16:24:02;9.63;;;4.83;;